Time,TemperatureF,DewpointF,PressureIn,WindDirection,WindDirectionDegrees,WindSpeedMPH,WindSpeedGustMPH,Humidity,HourlyPrecipIn,Conditions,Clouds,dailyrainin,SoftwareType,DateUTC
2013-07-15 00:08:00,69.0,67.0,30.17,WSW,240,0.0,0.0,92,0.00,,,0.00,weatherlink.com 1.10,2013-07-15 04:08:00,
2013-07-15 00:23:00,68.7,66.0,30.17,WSW,240,0.0,0.0,92,0.00,,,0.00,weatherlink.com 1.10,2013-07-15 04:23:00,
2013-07-15 00:38:00,68.4,66.0,30.17,WSW,240,0.0,0.0,93,0.00,,,0.00,weatherlink.com 1.10,2013-07-15 04:38:00,
2013-07-15 00:53:00,68.1,66.0,30.17,WSW,240,0.0,0.0,94,0.00,,,0.00,weatherlink.com 1.10,2013-07-15 04:53:00,
2013-07-15 01:08:00,68.1,66.0,30.17,WSW,240,0.0,0.0,94,0.00,,,0.00,weatherlink.com 1.10,2013-07-15 05:08:00,
2013-07-15 01:23:00,67.9,66.0,30.17,NNW,333,0.0,2.0,94,0.00,,,0.00,weatherlink.com 1.10,2013-07-15 05:23:00,
2013-07-15 01:38:00,67.3,66.0,30.17,NNW,333,0.0,0.0,94,0.00,,,0.00,weatherlink.com 1.10,2013-07-15 05:38:00,
2013-07-15 01:53:00,67.4,66.0,30.17,NW,325,0.0,0.0,95,0.00,,,0.00,weatherlink.com 1.10,2013-07-15 05:53:00,
2013-07-15 02:08:00,66.9,66.0,30.16,NW,324,0.0,0.0,95,0.00,,,0.00,weatherlink.com 1.10,2013-07-15 06:08:00,
2013-07-15 02:23:00,66.7,65.0,30.16,NW,324,0.0,0.0,95,0.00,,,0.00,weatherlink.com 1.10,2013-07-15 06:23:00,
2013-07-15 02:38:00,66.4,65.0,30.16,NW,324,0.0,0.0,95,0.00,,,0.00,weatherlink.com 1.10,2013-07-15 06:38:00,
2013-07-15 02:53:00,66.8,65.0,30.16,NW,324,0.0,0.0,95,0.00,,,0.00,weatherlink.com 1.10,2013-07-15 06:53:00,
2013-07-15 03:08:00,67.1,66.0,30.16,NW,324,0.0,0.0,95,0.00,,,0.00,weatherlink.com 1.10,2013-07-15 07:08:00,
2013-07-15 03:23:00,66.6,65.0,30.16,NW,324,0.0,0.0,95,0.00,,,0.00,weatherlink.com 1.10,2013-07-15 07:23:00,
2013-07-15 03:38:00,66.5,65.0,30.16,NW,325,0.0,0.0,95,0.00,,,0.00,weatherlink.com 1.10,2013-07-15 07:38:00,
2013-07-15 03:53:00,66.4,65.0,30.16,NW,324,0.0,0.0,95,0.00,,,0.00,weatherlink.com 1.10,2013-07-15 07:53:00,
2013-07-15 04:08:00,66.6,65.0,30.16,North,6,0.0,0.0,95,0.00,,,0.00,weatherlink.com 1.10,2013-07-15 08:08:00,
2013-07-15 04:23:00,66.4,65.0,30.16,NNW,331,0.0,0.0,95,0.00,,,0.00,weatherlink.com 1.10,2013-07-15 08:23:00,
2013-07-15 04:38:00,66.4,65.0,30.16,WNW,301,0.0,0.0,95,0.00,,,0.00,weatherlink.com 1.10,2013-07-15 08:38:00,
2013-07-15 04:53:00,66.2,65.0,30.16,WNW,301,0.0,0.0,95,0.00,,,0.00,weatherlink.com 1.10,2013-07-15 08:53:00,
2013-07-15 05:08:00,66.1,65.0,30.17,WNW,302,0.0,0.0,95,0.00,,,0.00,weatherlink.com 1.10,2013-07-15 09:08:00,
2013-07-15 05:23:00,66.1,65.0,30.16,WNW,301,0.0,0.0,95,0.00,,,0.00,weatherlink.com 1.10,2013-07-15 09:23:00,
2013-07-15 05:38:00,66.4,65.0,30.17,WNW,290,0.0,0.0,95,0.00,,,0.00,weatherlink.com 1.10,2013-07-15 09:38:00,
2013-07-15 05:53:00,66.8,65.0,30.17,WNW,290,0.0,0.0,95,0.00,,,0.00,weatherlink.com 1.10,2013-07-15 09:53:00,
2013-07-15 06:08:00,67.1,66.0,30.17,WNW,290,0.0,0.0,95,0.00,,,0.00,weatherlink.com 1.10,2013-07-15 10:08:00,
2013-07-15 06:23:00,68.1,67.0,30.17,North,350,0.0,0.0,95,0.00,,,0.00,weatherlink.com 1.10,2013-07-15 10:23:00,
2013-07-15 06:38:00,69.4,68.0,30.17,North,350,0.0,0.0,94,0.00,,,0.00,weatherlink.com 1.10,2013-07-15 10:38:00,
2013-07-15 06:53:00,69.9,68.0,30.17,NNW,342,0.0,0.0,93,0.00,,,0.00,weatherlink.com 1.10,2013-07-15 10:53:00,
2013-07-15 07:08:00,71.3,69.0,30.17,North,8,0.0,0.0,92,0.00,,,0.00,weatherlink.com 1.10,2013-07-15 11:08:00,
2013-07-15 07:24:00,72.6,70.0,30.17,North,1,1.0,3.0,90,0.00,,,0.00,weatherlink.com 1.10,2013-07-15 11:24:00,
2013-07-15 07:39:00,73.5,70.0,30.17,North,352,2.0,4.0,89,0.00,,,0.00,weatherlink.com 1.10,2013-07-15 11:39:00,
2013-07-15 07:54:00,74.5,71.0,30.18,North,351,1.0,3.0,88,0.00,,,0.00,weatherlink.com 1.10,2013-07-15 11:54:00,
2013-07-15 08:09:00,75.8,71.0,30.18,NNW,342,2.0,4.0,86,0.00,,,0.00,weatherlink.com 1.10,2013-07-15 12:09:00,
2013-07-15 08:24:00,76.6,71.0,30.18,NNW,345,4.0,4.0,83,0.00,,,0.00,weatherlink.com 1.10,2013-07-15 12:24:00,
2013-07-15 08:39:00,76.9,71.0,30.17,North,356,0.0,4.0,82,0.00,,,0.00,weatherlink.com 1.10,2013-07-15 12:39:00,
2013-07-15 08:54:00,77.4,71.0,30.17,North,356,1.0,5.0,81,0.00,,,0.00,weatherlink.com 1.10,2013-07-15 12:54:00,
2013-07-15 09:09:00,78.3,72.0,30.17,NNW,332,3.0,5.0,80,0.00,,,0.00,weatherlink.com 1.10,2013-07-15 13:09:00,
2013-07-15 09:24:00,78.4,71.0,30.17,North,358,3.0,6.0,79,0.00,,,0.00,weatherlink.com 1.10,2013-07-15 13:24:00,
2013-07-15 09:39:00,78.6,72.0,30.16,North,9,3.0,6.0,79,0.00,,,0.00,weatherlink.com 1.10,2013-07-15 13:39:00,
2013-07-15 09:54:00,79.4,71.0,30.16,North,350,7.0,7.0,75,0.00,,,0.00,weatherlink.com 1.10,2013-07-15 13:54:00,
2013-07-15 10:09:00,79.2,71.0,30.16,NNW,333,3.0,6.0,77,0.00,,,0.00,weatherlink.com 1.10,2013-07-15 14:09:00,
2013-07-15 10:25:00,80.3,70.0,30.16,NNW,346,4.0,12.0,70,0.00,,,0.00,weatherlink.com 1.10,2013-07-15 14:25:00,
2013-07-15 10:40:00,81.0,70.0,30.16,NNW,333,3.0,9.0,69,0.00,,,0.00,weatherlink.com 1.10,2013-07-15 14:40:00,
2013-07-15 10:55:00,81.2,69.0,30.16,NNW,348,6.0,12.0,67,0.00,,,0.00,weatherlink.com 1.10,2013-07-15 14:55:00,
2013-07-15 11:10:00,81.7,67.0,30.15,WSW,239,2.0,10.0,62,0.00,,,0.00,weatherlink.com 1.10,2013-07-15 15:10:00,
2013-07-15 11:39:00,82.6,68.0,30.15,NE,35,2.0,10.0,61,0.00,,,0.00,weatherlink.com 1.10,2013-07-15 15:39:00,
2013-07-15 11:54:00,82.3,69.0,30.15,SSE,155,0.0,10.0,64,0.00,,,0.00,weatherlink.com 1.10,2013-07-15 15:54:00,
2013-07-15 12:25:00,82.9,68.0,30.14,NNW,342,4.0,6.0,60,0.00,,,0.00,weatherlink.com 1.10,2013-07-15 16:25:00,
2013-07-15 12:40:00,83.5,69.0,30.13,West,273,1.0,9.0,61,0.00,,,0.00,weatherlink.com 1.10,2013-07-15 16:40:00,
2013-07-15 13:10:00,84.3,68.0,30.12,WNW,288,2.0,15.0,59,0.00,,,0.00,weatherlink.com 1.10,2013-07-15 17:10:00,
2013-07-15 13:25:00,84.8,69.0,30.12,NW,316,1.0,10.0,60,0.00,,,0.00,weatherlink.com 1.10,2013-07-15 17:25:00,
2013-07-15 13:40:00,84.9,67.0,30.11,North,10,2.0,13.0,55,0.00,,,0.00,weatherlink.com 1.10,2013-07-15 17:40:00,
2013-07-15 13:55:00,85.1,68.0,30.11,NNW,333,3.0,8.0,56,0.00,,,0.00,weatherlink.com 1.10,2013-07-15 17:55:00,
2013-07-15 14:10:00,85.6,68.0,30.11,NNW,337,4.0,9.0,56,0.00,,,0.00,weatherlink.com 1.10,2013-07-15 18:10:00,
2013-07-15 14:25:00,85.2,69.0,30.11,WSW,241,1.0,8.0,59,0.00,,,0.00,weatherlink.com 1.10,2013-07-15 18:25:00,
2013-07-15 14:40:00,86.4,68.0,30.11,NW,326,3.0,10.0,55,0.00,,,0.00,weatherlink.com 1.10,2013-07-15 18:40:00,
2013-07-15 14:55:00,86.4,68.0,30.10,NNW,330,8.0,12.0,55,0.00,,,0.00,weatherlink.com 1.10,2013-07-15 18:55:00,
2013-07-15 15:26:00,86.6,69.0,30.10,NNW,339,5.0,8.0,55,0.00,,,0.00,weatherlink.com 1.10,2013-07-15 19:26:00,
2013-07-15 15:41:00,86.2,66.0,30.09,NNW,334,8.0,11.0,52,0.00,,,0.00,weatherlink.com 1.10,2013-07-15 19:41:00,
2013-07-15 15:56:00,86.6,63.0,30.09,West,277,4.0,13.0,46,0.00,,,0.00,weatherlink.com 1.10,2013-07-15 19:56:00,
2013-07-15 16:11:00,87.0,65.0,30.09,North,5,10.0,11.0,48,0.00,,,0.00,weatherlink.com 1.10,2013-07-15 20:11:00,
2013-07-15 16:25:00,86.9,68.0,30.09,WNW,289,2.0,11.0,54,0.00,,,0.00,weatherlink.com 1.10,2013-07-15 20:25:00,
2013-07-15 16:40:00,86.7,66.0,30.09,West,271,2.0,10.0,50,0.00,,,0.00,weatherlink.com 1.10,2013-07-15 20:40:00,
2013-07-15 17:10:00,85.6,65.0,30.08,West,266,0.0,9.0,50,0.00,,,0.00,weatherlink.com 1.10,2013-07-15 21:10:00,
2013-07-15 17:25:00,85.4,66.0,30.07,West,273,1.0,7.0,53,0.00,,,0.00,weatherlink.com 1.10,2013-07-15 21:25:00,
2013-07-15 17:40:00,85.0,64.0,30.07,NNW,348,6.0,8.0,50,0.00,,,0.00,weatherlink.com 1.10,2013-07-15 21:40:00,
2013-07-15 17:55:00,84.7,66.0,30.07,NNW,348,3.0,8.0,53,0.00,,,0.00,weatherlink.com 1.10,2013-07-15 21:55:00,
2013-07-15 18:10:00,84.1,65.0,30.07,NW,324,0.0,5.0,52,0.00,,,0.00,weatherlink.com 1.10,2013-07-15 22:10:00,
2013-07-15 18:25:00,83.7,64.0,30.07,WSW,251,1.0,5.0,52,0.00,,,0.00,weatherlink.com 1.10,2013-07-15 22:25:00,
2013-07-15 18:40:00,83.3,66.0,30.07,NW,310,1.0,3.0,56,0.00,,,0.00,weatherlink.com 1.10,2013-07-15 22:40:00,
2013-07-15 18:55:00,82.5,66.0,30.07,West,274,1.0,2.0,58,0.00,,,0.00,weatherlink.com 1.10,2013-07-15 22:55:00,
2013-07-15 19:10:00,82.1,68.0,30.07,WSW,250,1.0,2.0,62,0.00,,,0.00,weatherlink.com 1.10,2013-07-15 23:10:00,
2013-07-15 19:25:00,81.0,69.0,30.07,WSW,239,1.0,2.0,66,0.00,,,0.00,weatherlink.com 1.10,2013-07-15 23:25:00,
2013-07-15 19:40:00,80.3,68.0,30.07,West,260,2.0,2.0,67,0.00,,,0.00,weatherlink.com 1.10,2013-07-15 23:40:00,
2013-07-15 19:55:00,79.6,68.0,30.07,WSW,253,1.0,2.0,67,0.00,,,0.00,weatherlink.com 1.10,2013-07-15 23:55:00,
2013-07-15 20:10:00,78.6,67.0,30.08,West,260,2.0,2.0,67,0.00,,,0.00,weatherlink.com 1.10,2013-07-16 00:10:00,
2013-07-15 20:25:00,77.7,66.0,30.08,WSW,246,1.0,2.0,68,0.00,,,0.00,weatherlink.com 1.10,2013-07-16 00:25:00,
2013-07-15 20:40:00,76.4,66.0,30.08,West,262,0.0,2.0,71,0.00,,,0.00,weatherlink.com 1.10,2013-07-16 00:40:00,
2013-07-15 20:55:00,76.5,66.0,30.09,WSW,257,1.0,2.0,70,0.00,,,0.00,weatherlink.com 1.10,2013-07-16 00:55:00,
2013-07-15 21:25:00,75.3,67.0,30.10,NW,321,0.0,4.0,76,0.00,,,0.00,weatherlink.com 1.10,2013-07-16 01:25:00,
2013-07-15 21:40:00,75.2,66.0,30.10,West,271,1.0,3.0,73,0.00,,,0.00,weatherlink.com 1.10,2013-07-16 01:40:00,
2013-07-15 22:11:00,75.1,66.0,30.11,West,262,1.0,3.0,72,0.00,,,0.00,weatherlink.com 1.10,2013-07-16 02:11:00,
2013-07-15 22:41:00,74.1,65.0,30.11,NNW,335,1.0,2.0,74,0.00,,,0.00,weatherlink.com 1.10,2013-07-16 02:41:00,
2013-07-15 22:56:00,73.3,66.0,30.11,NW,310,1.0,4.0,77,0.00,,,0.00,weatherlink.com 1.10,2013-07-16 02:56:00,
2013-07-15 23:11:00,73.5,65.0,30.11,WNW,290,0.0,5.0,75,0.00,,,0.00,weatherlink.com 1.10,2013-07-16 03:11:00,
2013-07-15 23:26:00,73.6,65.0,30.11,WSW,250,1.0,3.0,75,0.00,,,0.00,weatherlink.com 1.10,2013-07-16 03:26:00,
2013-07-15 23:56:00,72.9,65.0,30.11,West,266,1.0,2.0,77,0.00,,,0.00,weatherlink.com 1.10,2013-07-16 03:56:00,